New Hradec, North Dakota
Current Conditions -  °F | °C
As of 7:56 PM on Tuesday 21 Oct 2014 (Local Time) from KDIK Reporting Station
Clear Clear  
Wind Chill: 58°   Ceiling: Unl
Heat Index: 58°   Visibility: 10mi
Dew Point: 44°   Wind: 9mph
Humidity: 60%   Direction: 170°S
Pressure: 29.61"   Gusts: NA
Location:  46.9271°N, 102.754°W
Report Text: KDIK 220156Z AUTO 17008KT 10SM CLR 14/07 A2961 RMK AO2 SLP032 T01440067
Loading
Personal Weather Stations






























Interactive Weather Map
Tropical Storm Tracking
New forecast layout! Learn more

10-Day Weather Forecast

Advertisements
Track Severe Weather on mobile